sensor_id;sensor_type;location;lat;lon;timestamp;P1;durP1;ratioP1;P2;durP2;ratioP2
21647;SDS011;10985;54.182;7.890;2023-02-15T09:43:24;65.03;;;45.67;;
21647;SDS011;10985;54.182;7.890;2023-02-15T10:11:39;59.70;;;43.28;;
21647;SDS011;10985;54.182;7.890;2023-02-15T10:35:42;88.18;;;61.60;;
21647;SDS011;10985;54.182;7.890;2023-02-15T10:38:40;89.47;;;61.17;;
21647;SDS011;10985;54.182;7.890;2023-02-15T10:41:15;89.55;;;59.42;;
21647;SDS011;10985;54.182;7.890;2023-02-15T10:46:50;91.40;;;59.38;;
21647;SDS011;10985;54.182;7.890;2023-02-15T10:52:19;85.45;;;56.33;;
21647;SDS011;10985;54.182;7.890;2023-02-15T10:55:21;81.18;;;55.78;;
21647;SDS011;10985;54.182;7.890;2023-02-15T10:58:13;79.63;;;55.42;;
21647;SDS011;10985;54.182;7.890;2023-02-15T11:03:56;75.15;;;52.20;;
21647;SDS011;10985;54.182;7.890;2023-02-15T11:06:50;72.28;;;50.28;;
21647;SDS011;10985;54.182;7.890;2023-02-15T11:09:20;68.22;;;49.80;;
21647;SDS011;10985;54.182;7.890;2023-02-15T11:11:49;68.07;;;47.65;;
21647;SDS011;10985;54.182;7.890;2023-02-15T11:14:23;64.18;;;48.08;;
21647;SDS011;10985;54.182;7.890;2023-02-15T11:17:02;62.70;;;46.72;;
21647;SDS011;10985;54.182;7.890;2023-02-15T11:19:58;62.25;;;45.00;;
21647;SDS011;10985;54.182;7.890;2023-02-15T11:22:47;62.33;;;45.05;;
21647;SDS011;10985;54.182;7.890;2023-02-15T11:25:19;62.15;;;45.60;;
21647;SDS011;10985;54.182;7.890;2023-02-15T11:27:58;62.83;;;44.58;;
21647;SDS011;10985;54.182;7.890;2023-02-15T11:30:39;61.25;;;44.28;;
21647;SDS011;10985;54.182;7.890;2023-02-15T11:33:13;59.28;;;42.65;;
21647;SDS011;10985;54.182;7.890;2023-02-15T11:35:48;59.92;;;42.92;;
21647;SDS011;10985;54.182;7.890;2023-02-15T11:38:31;55.38;;;41.78;;
21647;SDS011;10985;54.182;7.890;2023-02-15T11:43:32;64.68;;;42.35;;
21647;SDS011;10985;54.182;7.890;2023-02-15T11:46:13;57.53;;;43.08;;
21647;SDS011;10985;54.182;7.890;2023-02-15T11:48:39;57.72;;;41.50;;
21647;SDS011;10985;54.182;7.890;2023-02-15T11:51:08;59.63;;;43.25;;
21647;SDS011;10985;54.182;7.890;2023-02-15T11:53:38;60.47;;;42.80;;
21647;SDS011;10985;54.182;7.890;2023-02-15T11:56:04;56.88;;;43.03;;
21647;SDS011;10985;54.182;7.890;2023-02-15T11:58:44;62.72;;;43.22;;
21647;SDS011;10985;54.182;7.890;2023-02-15T12:04:47;59.22;;;43.38;;
21647;SDS011;10985;54.182;7.890;2023-02-15T12:07:10;60.00;;;43.28;;
21647;SDS011;10985;54.182;7.890;2023-02-15T12:09:45;58.47;;;43.90;;
21647;SDS011;10985;54.182;7.890;2023-02-15T12:14:51;60.35;;;43.72;;
21647;SDS011;10985;54.182;7.890;2023-02-15T12:17:20;56.92;;;42.67;;
21647;SDS011;10985;54.182;7.890;2023-02-15T12:19:48;55.58;;;42.83;;
21647;SDS011;10985;54.182;7.890;2023-02-15T12:22:25;57.42;;;44.30;;
21647;SDS011;10985;54.182;7.890;2023-02-15T12:24:54;58.03;;;42.45;;
21647;SDS011;10985;54.182;7.890;2023-02-15T12:27:33;55.85;;;42.38;;
21647;SDS011;10985;54.182;7.890;2023-02-15T12:30:06;58.10;;;43.70;;
21647;SDS011;10985;54.182;7.890;2023-02-15T12:32:47;59.40;;;43.10;;
21647;SDS011;10985;54.182;7.890;2023-02-15T12:35:29;54.53;;;42.58;;
21647;SDS011;10985;54.182;7.890;2023-02-15T12:38:04;52.63;;;41.53;;
21647;SDS011;10985;54.182;7.890;2023-02-15T12:41:02;53.08;;;40.30;;
21647;SDS011;10985;54.182;7.890;2023-02-15T12:43:34;57.83;;;40.85;;
21647;SDS011;10985;54.182;7.890;2023-02-15T12:46:19;53.72;;;41.13;;
21647;SDS011;10985;54.182;7.890;2023-02-15T12:49:06;53.63;;;40.38;;
21647;SDS011;10985;54.182;7.890;2023-02-15T12:51:54;55.00;;;39.72;;
21647;SDS011;10985;54.182;7.890;2023-02-15T12:59:59;49.63;;;37.05;;
21647;SDS011;10985;54.182;7.890;2023-02-15T13:08:04;48.13;;;36.55;;
21647;SDS011;10985;54.182;7.890;2023-02-15T13:10:37;45.55;;;36.35;;
21647;SDS011;10985;54.182;7.890;2023-02-15T13:13:24;46.35;;;37.05;;
21647;SDS011;10985;54.182;7.890;2023-02-15T13:15:52;47.30;;;37.55;;
21647;SDS011;10985;54.182;7.890;2023-02-15T13:18:31;48.53;;;37.58;;
21647;SDS011;10985;54.182;7.890;2023-02-15T13:21:18;45.45;;;36.15;;
21647;SDS011;10985;54.182;7.890;2023-02-15T13:23:51;46.08;;;36.17;;
21647;SDS011;10985;54.182;7.890;2023-02-15T13:26:22;48.47;;;36.20;;
21647;SDS011;10985;54.182;7.890;2023-02-15T13:28:52;47.70;;;36.40;;
21647;SDS011;10985;54.182;7.890;2023-02-15T13:31:23;47.72;;;37.13;;
21647;SDS011;10985;54.182;7.890;2023-02-15T13:33:53;42.65;;;35.63;;
21647;SDS011;10985;54.182;7.890;2023-02-15T13:47:54;44.00;;;33.65;;
21647;SDS011;10985;54.182;7.890;2023-02-15T13:52:59;37.90;;;31.63;;
21647;SDS011;10985;54.182;7.890;2023-02-15T13:55:53;38.40;;;30.38;;
21647;SDS011;10985;54.182;7.890;2023-02-15T13:58:35;37.88;;;30.67;;
21647;SDS011;10985;54.182;7.890;2023-02-15T14:01:19;38.38;;;30.90;;
21647;SDS011;10985;54.182;7.890;2023-02-15T14:08:11;40.33;;;31.90;;
21647;SDS011;10985;54.182;7.890;2023-02-15T14:10:20;37.92;;;31.02;;
21647;SDS011;10985;54.182;7.890;2023-02-15T14:15:48;36.47;;;30.95;;
21647;SDS011;10985;54.182;7.890;2023-02-15T14:21:17;41.20;;;32.30;;
21647;SDS011;10985;54.182;7.890;2023-02-15T14:24:04;41.00;;;33.65;;
21647;SDS011;10985;54.182;7.890;2023-02-15T14:26:47;39.25;;;33.22;;
21647;SDS011;10985;54.182;7.890;2023-02-15T14:32:33;39.17;;;33.05;;
21647;SDS011;10985;54.182;7.890;2023-02-15T14:35:05;42.88;;;34.28;;
21647;SDS011;10985;54.182;7.890;2023-02-15T14:37:41;44.72;;;34.60;;
21647;SDS011;10985;54.182;7.890;2023-02-15T14:43:19;45.70;;;35.97;;
21647;SDS011;10985;54.182;7.890;2023-02-15T14:46:00;45.20;;;36.35;;
21647;SDS011;10985;54.182;7.890;2023-02-15T14:48:33;46.88;;;36.33;;
21647;SDS011;10985;54.182;7.890;2023-02-15T14:54:06;46.03;;;37.10;;
